Time,TemperatureF,DewpointF,PressureIn,WindDirection,WindDirectionDegrees,WindSpeedMPH,WindSpeedGustMPH,Humidity,HourlyPrecipIn,Conditions,Clouds,dailyrainin,SoftwareType,DateUTC
2013-02-09 00:02:00,58.0,54.0,30.10,WNW,292,0.0,0.0,85,0.00,,,0.00,,2013-02-09 05:02:00,
2013-02-09 00:12:00,58.0,54.0,30.10,WNW,292,0.0,0.0,85,0.00,,,0.00,,2013-02-09 05:12:00,
2013-02-09 00:22:00,58.0,54.0,30.10,WNW,292,0.0,0.0,86,0.00,,,0.00,,2013-02-09 05:22:00,
2013-02-09 00:32:00,57.0,53.0,30.10,WNW,292,0.0,0.0,87,0.00,,,0.00,,2013-02-09 05:32:00,
2013-02-09 00:42:00,57.0,53.0,30.10,WNW,292,0.0,0.0,87,0.00,,,0.00,,2013-02-09 05:42:00,
2013-02-09 00:52:00,57.0,53.0,30.10,WNW,292,0.0,2.0,87,0.00,,,0.00,,2013-02-09 05:52:00,
2013-02-09 01:01:00,56.0,52.0,30.10,WNW,292,0.0,0.0,87,0.00,,,0.00,,2013-02-09 06:01:00,
2013-02-09 01:11:00,56.0,52.0,30.10,WNW,292,0.0,0.0,87,0.00,,,0.00,,2013-02-09 06:11:00,
2013-02-09 01:21:00,56.0,52.0,30.10,WNW,292,0.0,0.0,87,0.00,,,0.00,,2013-02-09 06:21:00,
2013-02-09 01:32:00,56.0,52.0,30.10,WNW,292,0.0,0.0,88,0.00,,,0.00,,2013-02-09 06:32:00,
2013-02-09 01:42:00,56.0,52.0,30.10,WNW,292,0.0,0.0,88,0.00,,,0.00,,2013-02-09 06:42:00,
2013-02-09 01:52:00,55.0,52.0,30.10,WNW,292,0.0,0.0,89,0.00,,,0.00,,2013-02-09 06:52:00,
2013-02-09 02:01:00,55.0,52.0,30.10,WNW,292,0.0,0.0,89,0.00,,,0.00,,2013-02-09 07:01:00,
2013-02-09 02:11:00,55.0,52.0,30.10,WNW,292,0.0,0.0,89,0.00,,,0.00,,2013-02-09 07:11:00,
2013-02-09 02:21:00,55.0,52.0,30.10,WNW,292,0.0,0.0,89,0.00,,,0.00,,2013-02-09 07:21:00,
2013-02-09 02:31:00,54.0,51.0,30.10,WNW,292,0.0,0.0,89,0.00,,,0.00,,2013-02-09 07:31:00,
2013-02-09 02:42:00,54.0,51.0,30.10,WNW,292,0.0,0.0,89,0.00,,,0.00,,2013-02-09 07:42:00,
2013-02-09 02:52:00,54.0,51.0,30.10,WNW,292,0.0,0.0,89,0.00,,,0.00,,2013-02-09 07:52:00,
2013-02-09 03:01:00,54.0,51.0,30.10,WNW,292,0.0,0.0,89,0.00,,,0.00,,2013-02-09 08:01:00,
2013-02-09 03:11:00,54.0,51.0,30.10,WNW,292,0.0,0.0,89,0.00,,,0.00,,2013-02-09 08:11:00,
2013-02-09 03:21:00,53.0,50.0,30.10,WNW,292,0.0,1.0,90,0.00,,,0.00,,2013-02-09 08:21:00,
2013-02-09 03:31:00,53.0,50.0,30.11,WNW,292,0.0,1.0,90,0.00,,,0.00,,2013-02-09 08:31:00,
2013-02-09 03:42:00,53.0,50.0,30.11,WNW,292,0.0,1.0,90,0.00,,,0.00,,2013-02-09 08:42:00,
2013-02-09 03:52:00,53.0,50.0,30.11,WNW,292,0.0,2.0,91,0.00,,,0.00,,2013-02-09 08:52:00,
2013-02-09 04:03:00,53.0,50.0,30.11,WNW,292,0.0,1.0,90,0.00,,,0.00,,2013-02-09 09:03:00,
2013-02-09 04:11:00,53.0,50.0,30.11,WNW,292,0.0,1.0,90,0.00,,,0.00,,2013-02-09 09:11:00,
2013-02-09 04:21:00,53.0,50.0,30.11,WNW,292,0.0,0.0,90,0.00,,,0.00,,2013-02-09 09:21:00,
2013-02-09 04:32:00,53.0,50.0,30.11,WNW,292,0.0,2.0,91,0.00,,,0.00,,2013-02-09 09:32:00,
2013-02-09 04:42:00,53.0,50.0,30.11,WNW,292,0.0,2.0,91,0.00,,,0.00,,2013-02-09 09:42:00,
2013-02-09 04:52:00,52.0,49.0,30.11,WNW,292,0.0,0.0,90,0.00,,,0.00,,2013-02-09 09:52:00,
2013-02-09 05:01:00,52.0,49.0,30.12,WNW,292,0.0,2.0,91,0.00,,,0.00,,2013-02-09 10:01:00,
2013-02-09 05:11:00,52.0,49.0,30.12,WNW,292,0.0,2.0,91,0.00,,,0.00,,2013-02-09 10:11:00,
2013-02-09 05:21:00,52.0,49.0,30.13,WNW,292,0.0,0.0,91,0.00,,,0.00,,2013-02-09 10:21:00,
2013-02-09 05:32:00,52.0,49.0,30.13,WNW,292,0.0,0.0,91,0.00,,,0.00,,2013-02-09 10:32:00,
2013-02-09 05:42:00,52.0,49.0,30.13,WNW,292,0.0,0.0,91,0.00,,,0.00,,2013-02-09 10:42:00,
2013-02-09 05:52:00,51.0,48.0,30.13,WNW,292,0.0,0.0,91,0.00,,,0.00,,2013-02-09 10:52:00,
2013-02-09 06:01:00,51.0,48.0,30.14,WNW,292,0.0,0.0,91,0.00,,,0.00,,2013-02-09 11:01:00,
2013-02-09 06:11:00,51.0,48.0,30.14,WNW,292,0.0,0.0,91,0.00,,,0.00,,2013-02-09 11:11:00,
2013-02-09 06:22:00,51.0,48.0,30.14,WNW,292,0.0,0.0,91,0.00,,,0.00,,2013-02-09 11:22:00,
2013-02-09 06:32:00,50.0,47.0,30.15,WNW,292,0.0,0.0,91,0.00,,,0.00,,2013-02-09 11:32:00,
2013-02-09 06:42:00,50.0,47.0,30.15,WNW,292,0.0,0.0,91,0.00,,,0.00,,2013-02-09 11:42:00,
2013-02-09 06:52:00,50.0,47.0,30.16,WNW,292,0.0,0.0,91,0.00,,,0.00,,2013-02-09 11:52:00,
2013-02-09 07:02:00,50.0,47.0,30.16,WNW,292,0.0,0.0,91,0.00,,,0.00,,2013-02-09 12:02:00,
2013-02-09 07:11:00,50.0,47.0,30.16,WNW,292,0.0,0.0,91,0.00,,,0.00,,2013-02-09 12:11:00,
2013-02-09 07:22:00,50.0,47.0,30.16,WNW,292,0.0,0.0,91,0.00,,,0.00,,2013-02-09 12:22:00,
2013-02-09 07:32:00,49.0,46.0,30.17,WNW,292,0.0,0.0,91,0.00,,,0.00,,2013-02-09 12:32:00,
2013-02-09 07:42:00,49.0,46.0,30.17,WNW,292,0.0,0.0,91,0.00,,,0.00,,2013-02-09 12:42:00,
2013-02-09 07:52:00,49.0,47.0,30.18,WNW,292,0.0,1.0,92,0.00,,,0.00,,2013-02-09 12:52:00,
2013-02-09 08:02:00,49.0,47.0,30.19,WNW,292,0.0,2.0,93,0.00,,,0.00,,2013-02-09 13:02:00,
2013-02-09 08:11:00,49.0,47.0,30.19,WNW,292,0.0,2.0,93,0.00,,,0.00,,2013-02-09 13:11:00,
2013-02-09 08:22:00,50.0,48.0,30.19,NNW,327,0.0,3.0,93,0.00,,,0.00,,2013-02-09 13:22:00,
2013-02-09 08:32:00,51.0,49.0,30.20,North,360,0.0,3.0,94,0.00,,,0.00,,2013-02-09 13:32:00,
2013-02-09 08:42:00,51.0,49.0,30.20,North,360,0.0,3.0,94,0.00,,,0.00,,2013-02-09 13:42:00,
2013-02-09 08:52:00,52.0,50.0,30.20,NE,34,4.0,7.0,93,0.00,,,0.00,,2013-02-09 13:52:00,
2013-02-09 09:01:00,53.0,51.0,30.20,NE,40,2.0,6.0,92,0.00,,,0.00,,2013-02-09 14:01:00,
2013-02-09 09:11:00,53.0,51.0,30.20,NE,40,2.0,6.0,92,0.00,,,0.00,,2013-02-09 14:11:00,
2013-02-09 09:21:00,54.0,51.0,30.21,NE,51,2.0,5.0,91,0.00,,,0.00,,2013-02-09 14:21:00,
2013-02-09 09:32:00,55.0,52.0,30.21,NE,40,0.0,1.0,89,0.00,,,0.00,,2013-02-09 14:32:00,
2013-02-09 09:42:00,55.0,52.0,30.21,NE,40,0.0,1.0,89,0.00,,,0.00,,2013-02-09 14:42:00,
2013-02-09 09:52:00,56.0,52.0,30.22,North,5,0.0,5.0,88,0.00,,,0.00,,2013-02-09 14:52:00,
2013-02-09 10:02:00,58.0,54.0,30.22,NE,38,2.0,10.0,85,0.00,,,0.00,,2013-02-09 15:02:00,
2013-02-09 10:11:00,58.0,54.0,30.22,NE,38,2.0,10.0,85,0.00,,,0.00,,2013-02-09 15:11:00,
2013-02-09 10:21:00,60.0,54.0,30.22,NE,36,3.0,11.0,82,0.00,,,0.00,,2013-02-09 15:21:00,
2013-02-09 10:32:00,62.0,55.0,30.22,NE,35,3.0,7.0,78,0.00,,,0.00,,2013-02-09 15:32:00,
2013-02-09 10:42:00,62.0,55.0,30.22,NE,35,3.0,7.0,78,0.00,,,0.00,,2013-02-09 15:42:00,
2013-02-09 10:52:00,63.0,55.0,30.22,NNE,26,4.0,7.0,75,0.00,,,0.00,,2013-02-09 15:52:00,
2013-02-09 11:01:00,65.0,56.0,30.22,East,80,4.0,7.0,72,0.00,,,0.00,,2013-02-09 16:01:00,
2013-02-09 11:11:00,65.0,56.0,30.22,East,80,4.0,7.0,72,0.00,,,0.00,,2013-02-09 16:11:00,
2013-02-09 11:22:00,65.0,55.0,30.22,NE,37,3.0,7.0,71,0.00,,,0.00,,2013-02-09 16:22:00,
2013-02-09 11:32:00,67.0,56.0,30.22,NE,51,1.0,4.0,68,0.00,,,0.00,,2013-02-09 16:32:00,
2013-02-09 11:42:00,67.0,56.0,30.22,NE,51,1.0,4.0,68,0.00,,,0.00,,2013-02-09 16:42:00,
2013-02-09 11:52:00,68.0,55.0,30.22,NNE,28,0.0,11.0,64,0.00,,,0.00,,2013-02-09 16:52:00,
2013-02-09 12:01:00,69.0,56.0,30.22,NNE,16,2.0,7.0,63,0.00,,,0.00,,2013-02-09 17:01:00,
2013-02-09 12:11:00,69.0,56.0,30.22,NNE,16,2.0,7.0,63,0.00,,,0.00,,2013-02-09 17:11:00,
2013-02-09 12:21:00,71.0,56.0,30.21,NW,324,0.0,9.0,59,0.00,,,0.00,,2013-02-09 17:21:00,
2013-02-09 12:32:00,71.0,55.0,30.21,ENE,67,1.0,5.0,58,0.00,,,0.00,,2013-02-09 17:32:00,
2013-02-09 12:42:00,71.0,55.0,30.21,ENE,67,1.0,5.0,58,0.00,,,0.00,,2013-02-09 17:42:00,
2013-02-09 12:52:00,71.0,55.0,30.21,ENE,67,3.0,7.0,57,0.00,,,0.00,,2013-02-09 17:52:00,
2013-02-09 13:02:00,70.0,55.0,30.20,NNE,28,5.0,11.0,59,0.00,,,0.00,,2013-02-09 18:02:00,
2013-02-09 13:12:00,70.0,55.0,30.20,NNE,28,5.0,11.0,59,0.00,,,0.00,,2013-02-09 18:12:00,
2013-02-09 13:23:00,71.0,55.0,30.19,ENE,61,3.0,10.0,57,0.00,,,0.00,,2013-02-09 18:23:00,
2013-02-09 13:32:00,73.0,56.0,30.19,NE,35,1.0,9.0,55,0.00,,,0.00,,2013-02-09 18:32:00,
2013-02-09 13:42:00,73.0,56.0,30.19,NE,35,1.0,9.0,55,0.00,,,0.00,,2013-02-09 18:42:00,
2013-02-09 13:52:00,73.0,56.0,30.18,East,95,2.0,10.0,55,0.00,,,0.00,,2013-02-09 18:52:00,
2013-02-09 14:01:00,73.0,55.0,30.18,North,5,2.0,10.0,53,0.00,,,0.00,,2013-02-09 19:01:00,
2013-02-09 14:11:00,73.0,55.0,30.18,North,5,2.0,10.0,53,0.00,,,0.00,,2013-02-09 19:11:00,
2013-02-09 14:22:00,74.0,55.0,30.17,ENE,67,3.0,11.0,51,0.00,,,0.00,,2013-02-09 19:22:00,
2013-02-09 14:32:00,75.0,56.0,30.17,NNE,26,4.0,9.0,51,0.00,,,0.00,,2013-02-09 19:32:00,
2013-02-09 14:42:00,75.0,56.0,30.17,NNE,26,4.0,9.0,51,0.00,,,0.00,,2013-02-09 19:42:00,
2013-02-09 14:52:00,74.0,55.0,30.17,NE,38,3.0,9.0,51,0.00,,,0.00,,2013-02-09 19:52:00,
2013-02-09 15:01:00,74.0,55.0,30.17,NE,50,2.0,10.0,51,0.00,,,0.00,,2013-02-09 20:01:00,
2013-02-09 15:11:00,74.0,55.0,30.17,NE,50,2.0,10.0,51,0.00,,,0.00,,2013-02-09 20:11:00,
2013-02-09 15:21:00,74.0,55.0,30.16,NNE,26,1.0,7.0,52,0.00,,,0.00,,2013-02-09 20:21:00,
2013-02-09 15:32:00,73.0,55.0,30.17,NE,36,2.0,10.0,53,0.00,,,0.00,,2013-02-09 20:32:00,
2013-02-09 15:42:00,73.0,55.0,30.17,NE,36,2.0,10.0,53,0.00,,,0.00,,2013-02-09 20:42:00,
2013-02-09 15:52:00,72.0,54.0,30.17,NE,55,4.0,11.0,54,0.00,,,0.00,,2013-02-09 20:52:00,
2013-02-09 16:02:00,72.0,55.0,30.16,East,95,4.0,10.0,56,0.00,,,0.00,,2013-02-09 21:02:00,
2013-02-09 16:12:00,72.0,55.0,30.16,East,95,4.0,10.0,56,0.00,,,0.00,,2013-02-09 21:12:00,
2013-02-09 16:21:00,72.0,56.0,30.17,NE,36,3.0,10.0,57,0.00,,,0.00,,2013-02-09 21:21:00,
2013-02-09 16:32:00,71.0,55.0,30.17,NNE,25,4.0,7.0,57,0.00,,,0.00,,2013-02-09 21:32:00,
2013-02-09 16:42:00,71.0,55.0,30.17,NNE,25,4.0,7.0,57,0.00,,,0.00,,2013-02-09 21:42:00,
2013-02-09 16:52:00,70.0,55.0,30.18,ENE,69,3.0,10.0,59,0.00,,,0.00,,2013-02-09 21:52:00,
2013-02-09 17:01:00,70.0,55.0,30.18,ENE,57,4.0,7.0,60,0.00,,,0.00,,2013-02-09 22:01:00,
2013-02-09 17:11:00,70.0,55.0,30.18,ENE,57,4.0,7.0,60,0.00,,,0.00,,2013-02-09 22:11:00,
2013-02-09 17:22:00,70.0,55.0,30.19,ENE,62,3.0,6.0,59,0.00,,,0.00,,2013-02-09 22:22:00,
2013-02-09 17:32:00,70.0,55.0,30.19,ENE,59,3.0,10.0,59,0.00,,,0.00,,2013-02-09 22:32:00,
2013-02-09 17:42:00,70.0,55.0,30.19,ENE,59,3.0,10.0,59,0.00,,,0.00,,2013-02-09 22:42:00,
2013-02-09 17:52:00,69.0,54.0,30.19,ENE,65,3.0,9.0,59,0.00,,,0.00,,2013-02-09 22:52:00,
2013-02-09 18:02:00,68.0,54.0,30.19,ENE,61,3.0,11.0,60,0.00,,,0.00,,2013-02-09 23:02:00,
2013-02-09 18:11:00,68.0,54.0,30.19,ENE,61,3.0,11.0,60,0.00,,,0.00,,2013-02-09 23:11:00,
2013-02-09 18:21:00,67.0,54.0,30.19,ENE,63,5.0,6.0,62,0.00,,,0.00,,2013-02-09 23:21:00,
2013-02-09 18:32:00,66.0,53.0,30.19,NE,46,5.0,7.0,64,0.00,,,0.00,,2013-02-09 23:32:00,
2013-02-09 18:42:00,66.0,53.0,30.19,NE,46,5.0,7.0,64,0.00,,,0.00,,2013-02-09 23:42:00,
2013-02-09 18:52:00,65.0,53.0,30.19,NE,49,2.0,7.0,65,0.00,,,0.00,,2013-02-09 23:52:00,
2013-02-09 19:02:00,65.0,53.0,30.19,ENE,60,2.0,6.0,66,0.00,,,0.00,,2013-02-10 00:02:00,
2013-02-09 19:12:00,65.0,53.0,30.19,ENE,60,2.0,6.0,66,0.00,,,0.00,,2013-02-10 00:12:00,
2013-02-09 19:22:00,64.0,53.0,30.19,NE,34,2.0,5.0,67,0.00,,,0.00,,2013-02-10 00:22:00,
2013-02-09 19:32:00,63.0,52.0,30.20,NE,39,1.0,4.0,68,0.00,,,0.00,,2013-02-10 00:32:00,
2013-02-09 19:42:00,63.0,52.0,30.20,NE,39,1.0,4.0,68,0.00,,,0.00,,2013-02-10 00:42:00,
2013-02-09 19:52:00,63.0,52.0,30.21,NE,40,2.0,4.0,68,0.00,,,0.00,,2013-02-10 00:52:00,
2013-02-09 20:01:00,62.0,52.0,30.21,NE,39,0.0,4.0,69,0.00,,,0.00,,2013-02-10 01:01:00,
2013-02-09 20:12:00,62.0,52.0,30.21,NE,39,0.0,4.0,69,0.00,,,0.00,,2013-02-10 01:12:00,
2013-02-09 20:22:00,61.0,52.0,30.21,NE,55,1.0,5.0,71,0.00,,,0.00,,2013-02-10 01:22:00,
2013-02-09 20:32:00,61.0,52.0,30.21,NE,55,1.0,3.0,72,0.00,,,0.00,,2013-02-10 01:32:00,
2013-02-09 20:42:00,61.0,52.0,30.21,NE,55,1.0,3.0,72,0.00,,,0.00,,2013-02-10 01:42:00,
2013-02-09 20:52:00,60.0,51.0,30.22,NE,55,0.0,4.0,73,0.00,,,0.00,,2013-02-10 01:52:00,
2013-02-09 21:01:00,60.0,52.0,30.22,NE,55,0.0,3.0,74,0.00,,,0.00,,2013-02-10 02:01:00,
2013-02-09 21:11:00,60.0,52.0,30.22,NE,55,0.0,3.0,74,0.00,,,0.00,,2013-02-10 02:11:00,
2013-02-09 21:22:00,59.0,51.0,30.22,NE,54,0.0,1.0,76,0.00,,,0.00,,2013-02-10 02:22:00,
2013-02-09 21:32:00,58.0,51.0,30.23,NE,54,0.0,2.0,77,0.00,,,0.00,,2013-02-10 02:32:00,
2013-02-09 21:42:00,58.0,51.0,30.23,NE,54,0.0,2.0,77,0.00,,,0.00,,2013-02-10 02:42:00,
2013-02-09 21:52:00,58.0,51.0,30.23,NE,53,0.0,4.0,78,0.00,,,0.00,,2013-02-10 02:52:00,
2013-02-09 22:02:00,57.0,50.0,30.23,NE,53,1.0,3.0,78,0.00,,,0.00,,2013-02-10 03:02:00,
2013-02-09 22:11:00,57.0,50.0,30.23,NE,53,1.0,3.0,78,0.00,,,0.00,,2013-02-10 03:11:00,
2013-02-09 22:22:00,57.0,51.0,30.23,NE,53,0.0,2.0,79,0.00,,,0.00,,2013-02-10 03:22:00,
2013-02-09 22:32:00,56.0,50.0,30.23,NE,53,0.0,2.0,80,0.00,,,0.00,,2013-02-10 03:32:00,
2013-02-09 22:42:00,56.0,50.0,30.23,NE,53,0.0,2.0,80,0.00,,,0.00,,2013-02-10 03:42:00,
2013-02-09 22:52:00,56.0,50.0,30.24,NE,53,0.0,0.0,81,0.00,,,0.00,,2013-02-10 03:52:00,
2013-02-09 23:01:00,55.0,49.0,30.24,NE,53,0.0,0.0,81,0.00,,,0.00,,2013-02-10 04:01:00,
2013-02-09 23:11:00,55.0,49.0,30.24,NE,53,0.0,0.0,81,0.00,,,0.00,,2013-02-10 04:11:00,
2013-02-09 23:22:00,54.0,49.0,30.24,NE,53,0.0,0.0,83,0.00,,,0.00,,2013-02-10 04:22:00,
2013-02-09 23:32:00,54.0,49.0,30.24,NE,53,0.0,0.0,84,0.00,,,0.00,,2013-02-10 04:32:00,
2013-02-09 23:42:00,54.0,49.0,30.24,NE,53,0.0,0.0,84,0.00,,,0.00,,2013-02-10 04:42:00,
2013-02-09 23:52:00,53.0,49.0,30.24,NE,53,0.0,0.0,85,0.00,,,0.00,,2013-02-10 04:52:00,